createdAt,value
2018-12-23T00:00:56.493Z,14.37
2018-12-23T00:03:23.970Z,6.57
2018-12-23T00:05:51.427Z,24.70
2018-12-23T00:08:18.910Z,21.70
2018-12-23T00:10:46.363Z,15.57
2018-12-23T00:13:13.833Z,32.60
2018-12-23T00:15:41.314Z,8.17
2018-12-23T00:18:08.754Z,9.20
2018-12-23T00:20:36.226Z,15.63
2018-12-23T00:23:03.710Z,15.70
2018-12-23T00:25:31.242Z,15.77
2018-12-23T00:27:58.739Z,11.00
2018-12-23T00:30:26.188Z,10.47
2018-12-23T00:32:53.638Z,20.30
2018-12-23T00:35:21.117Z,19.33
2018-12-23T00:37:48.694Z,15.20
2018-12-23T00:40:16.165Z,18.43
2018-12-23T00:42:43.628Z,26.87
2018-12-23T00:45:11.270Z,18.33
2018-12-23T00:47:38.751Z,16.40
2018-12-23T00:50:06.803Z,26.73
2018-12-23T00:52:34.266Z,22.47
2018-12-23T00:55:01.743Z,14.37
2018-12-23T00:57:29.220Z,22.50
2018-12-23T00:59:56.676Z,11.03
2018-12-23T01:02:24.175Z,13.70
2018-12-23T01:04:51.715Z,18.40
2018-12-23T01:07:19.198Z,22.13
2018-12-23T01:09:46.652Z,23.93
2018-12-23T01:12:14.134Z,9.47
2018-12-23T01:14:41.717Z,25.13
2018-12-23T01:17:09.178Z,17.30
2018-12-23T01:19:36.639Z,17.73
2018-12-23T01:22:04.181Z,22.00
2018-12-23T01:24:31.651Z,29.10
2018-12-23T01:26:59.202Z,27.67
2018-12-23T01:29:26.671Z,25.23
2018-12-23T01:31:54.114Z,16.80
2018-12-23T01:34:21.589Z,20.80
2018-12-23T01:36:49.046Z,20.10
2018-12-23T01:39:16.668Z,32.87
2018-12-23T01:41:44.138Z,30.80
2018-12-23T01:44:11.624Z,32.57
2018-12-23T01:46:39.086Z,20.20
2018-12-23T01:49:06.557Z,18.77
2018-12-23T01:51:34.050Z,30.87
2018-12-23T01:54:01.510Z,24.73
2018-12-23T01:56:29.040Z,22.37
2018-12-23T01:58:56.503Z,24.83
2018-12-23T02:01:23.968Z,25.87
2018-12-23T02:03:51.425Z,26.00
2018-12-23T02:06:18.979Z,40.33
2018-12-23T02:08:46.449Z,31.93
2018-12-23T02:11:13.929Z,19.53
2018-12-23T02:13:41.419Z,23.77
2018-12-23T02:16:08.912Z,25.57
2018-12-23T02:18:36.372Z,26.87
2018-12-23T02:21:03.875Z,37.73
2018-12-23T02:23:31.386Z,26.47
2018-12-23T02:25:58.964Z,38.20
2018-12-23T02:28:26.416Z,26.90
2018-12-23T02:30:53.895Z,46.83
2018-12-23T02:33:21.366Z,25.43
2018-12-23T02:35:55.469Z,26.33
2018-12-23T02:38:18.334Z,32.30
2018-12-23T02:40:45.882Z,37.53
2018-12-23T02:43:13.362Z,40.23
2018-12-23T02:45:40.809Z,42.33
2018-12-23T02:48:08.262Z,33.30
2018-12-23T02:50:35.970Z,31.57
2018-12-23T02:53:03.457Z,33.70
2018-12-23T02:55:31.090Z,40.20
2018-12-23T02:57:58.576Z,29.13
2018-12-23T03:00:26.015Z,35.97
2018-12-23T03:02:53.552Z,33.93
2018-12-23T03:05:21.193Z,31.20
2018-12-23T03:07:48.650Z,31.60
2018-12-23T03:10:16.130Z,39.73
2018-12-23T03:12:43.590Z,35.90
2018-12-23T03:15:11.059Z,27.37
2018-12-23T03:17:38.721Z,25.53
2018-12-23T03:20:06.349Z,32.07
2018-12-23T03:22:33.874Z,45.80
2018-12-23T03:25:01.331Z,29.17
2018-12-23T03:27:29.092Z,43.50
2018-12-23T03:29:56.699Z,43.37
2018-12-23T03:32:24.226Z,38.00
2018-12-23T03:34:51.788Z,45.70
2018-12-23T03:37:19.263Z,51.57
2018-12-23T03:39:46.734Z,18.03
2018-12-23T03:42:14.291Z,46.60
2018-12-23T03:44:41.775Z,49.80
2018-12-23T03:47:09.274Z,26.10
2018-12-23T03:49:36.746Z,53.63
2018-12-23T03:52:04.199Z,56.87
2018-12-23T03:54:31.734Z,44.00
2018-12-23T03:56:59.193Z,42.50
2018-12-23T03:59:26.666Z,62.47
2018-12-23T04:01:54.117Z,65.40
2018-12-23T04:04:21.611Z,58.67
2018-12-23T04:06:49.057Z,60.00
2018-12-23T04:09:16.588Z,69.87
2018-12-23T04:11:44.061Z,59.53
2018-12-23T04:14:11.514Z,66.73
2018-12-23T04:16:39.048Z,88.13
2018-12-23T04:19:06.573Z,77.23
2018-12-23T04:21:34.044Z,76.83
2018-12-23T04:24:01.517Z,71.57
2018-12-23T04:26:29.001Z,65.17
2018-12-23T04:28:56.455Z,79.37
2018-12-23T04:31:23.918Z,79.00
2018-12-23T04:33:51.401Z,51.53
2018-12-23T04:36:18.878Z,54.67
2018-12-23T04:38:46.336Z,36.27
2018-12-23T04:41:13.825Z,58.27
2018-12-23T04:43:41.284Z,63.47
2018-12-23T04:46:08.787Z,49.70
2018-12-23T04:48:36.310Z,55.20
2018-12-23T04:51:03.781Z,71.50
2018-12-23T04:53:31.235Z,75.77
2018-12-23T04:55:58.771Z,39.40
2018-12-23T04:58:26.260Z,67.80
2018-12-23T05:00:53.749Z,44.93
2018-12-23T05:03:21.231Z,64.10
2018-12-23T05:05:48.815Z,63.60
2018-12-23T05:08:16.334Z,56.83
2018-12-23T05:10:43.826Z,49.70
2018-12-23T05:13:11.317Z,51.13
2018-12-23T05:15:38.833Z,38.27
2018-12-23T05:18:06.286Z,54.80
2018-12-23T05:20:33.772Z,59.57
2018-12-23T05:23:01.333Z,43.00
2018-12-23T05:25:28.802Z,61.23
2018-12-23T05:27:56.298Z,57.10
2018-12-23T05:30:23.770Z,50.43
2018-12-23T05:32:51.244Z,45.03
2018-12-23T05:35:18.734Z,67.80
2018-12-23T05:37:46.215Z,59.53
2018-12-23T05:40:13.690Z,59.30
2018-12-23T05:42:41.163Z,55.83
2018-12-23T05:45:08.645Z,69.67
2018-12-23T05:47:36.220Z,65.33
2018-12-23T05:50:03.871Z,85.53
2018-12-23T05:52:31.359Z,62.90
2018-12-23T05:54:58.824Z,55.70
2018-12-23T05:57:26.306Z,59.20
2018-12-23T05:59:53.807Z,64.53
2018-12-23T06:02:21.271Z,73.57
2018-12-23T06:04:48.767Z,83.57
2018-12-23T06:07:16.243Z,70.67
2018-12-23T06:09:43.723Z,75.20
2018-12-23T06:12:11.201Z,86.33
2018-12-23T06:14:38.900Z,53.97
2018-12-23T06:17:06.382Z,82.97
2018-12-23T06:19:33.919Z,53.40
2018-12-23T06:22:01.367Z,80.40
2018-12-23T06:24:29.214Z,58.00
2018-12-23T06:26:56.685Z,68.87
2018-12-23T06:29:24.166Z,75.17
2018-12-23T06:31:51.621Z,41.87
2018-12-23T06:34:19.098Z,78.07
2018-12-23T06:36:46.551Z,74.97
2018-12-23T06:39:14.037Z,87.27
2018-12-23T06:41:41.521Z,74.70
2018-12-23T06:44:09.099Z,67.73
2018-12-23T06:46:36.546Z,90.10
2018-12-23T06:49:04.042Z,84.00
2018-12-23T06:51:31.545Z,71.47
2018-12-23T06:53:59.001Z,87.40
2018-12-23T06:56:26.463Z,70.70
2018-12-23T06:58:53.955Z,78.43
2018-12-23T07:01:21.411Z,105.40
2018-12-23T07:03:48.869Z,71.10
2018-12-23T07:06:16.335Z,81.27
2018-12-23T07:08:43.790Z,73.17
2018-12-23T07:11:11.365Z,81.80
2018-12-23T07:13:38.845Z,92.83
2018-12-23T07:16:06.303Z,74.07
2018-12-23T07:18:33.823Z,86.87
2018-12-23T07:21:01.284Z,84.57
2018-12-23T07:23:28.770Z,110.60
2018-12-23T07:25:56.321Z,76.17
2018-12-23T07:28:23.774Z,105.33
2018-12-23T07:30:51.254Z,89.37
2018-12-23T07:33:18.729Z,107.33
2018-12-23T07:35:46.209Z,64.57
2018-12-23T07:38:14.014Z,123.00
2018-12-23T07:40:41.507Z,82.27
2018-12-23T07:43:08.987Z,68.10
2018-12-23T07:45:36.486Z,117.80
2018-12-23T07:48:03.938Z,81.17
2018-12-23T07:50:31.382Z,99.47
2018-12-23T07:52:58.865Z,101.47
2018-12-23T07:55:26.343Z,126.30
2018-12-23T07:57:53.811Z,123.00
2018-12-23T08:00:21.286Z,110.07
2018-12-23T08:02:48.823Z,92.97
2018-12-23T08:05:16.293Z,79.77
2018-12-23T08:07:43.767Z,75.70
2018-12-23T08:10:11.249Z,72.63
2018-12-23T08:12:38.700Z,107.10
2018-12-23T08:15:06.251Z,95.77
2018-12-23T08:17:33.692Z,106.47
2018-12-23T08:20:01.176Z,99.93
2018-12-23T08:22:28.642Z,88.73
2018-12-23T08:24:57.221Z,96.17
2018-12-23T08:27:24.918Z,99.33
2018-12-23T08:29:52.368Z,87.90
2018-12-23T08:32:19.910Z,79.30
2018-12-23T08:34:47.380Z,106.43
2018-12-23T08:37:14.875Z,78.40
2018-12-23T08:39:42.327Z,87.97
2018-12-23T08:42:09.944Z,107.27
2018-12-23T08:44:37.425Z,68.27
2018-12-23T08:47:05.248Z,102.10
2018-12-23T08:49:32.680Z,73.03
2018-12-23T08:52:00.146Z,77.07
2018-12-23T08:54:27.639Z,77.83
2018-12-23T08:56:55.102Z,77.10
2018-12-23T08:59:22.561Z,95.13
2018-12-23T09:01:50.085Z,86.47
2018-12-23T09:07:30.152Z,88.23
2018-12-23T09:10:10.871Z,68.43
2018-12-23T09:12:51.548Z,101.53
2018-12-23T09:15:32.635Z,89.03
2018-12-23T09:18:19.267Z,51.70
2018-12-23T09:20:56.284Z,75.33
2018-12-23T09:23:37.234Z,82.10
2018-12-23T09:26:17.693Z,59.90
2018-12-23T09:28:58.607Z,82.40
2018-12-23T09:31:39.615Z,56.33
2018-12-23T09:34:20.619Z,104.87
2018-12-23T09:37:01.555Z,83.37
2018-12-23T09:39:42.228Z,68.23
2018-12-23T09:42:22.812Z,87.07
2018-12-23T09:45:03.220Z,79.70
2018-12-23T09:47:43.615Z,73.10
2018-12-23T09:50:24.755Z,69.63
2018-12-23T09:53:05.884Z,89.20
2018-12-23T09:55:46.729Z,38.70
2018-12-23T09:58:27.720Z,57.63
2018-12-23T10:01:08.586Z,63.87
2018-12-23T10:03:49.575Z,71.67
2018-12-23T10:06:28.400Z,68.17
2018-12-23T10:09:16.267Z,98.33
2018-12-23T10:11:57.189Z,89.00
2018-12-23T10:14:36.015Z,65.27
2018-12-23T10:17:23.880Z,67.40
2018-12-23T10:20:05.059Z,74.20
2018-12-23T10:22:45.885Z,95.63
2018-12-23T10:25:27.225Z,61.90
2018-12-23T10:28:07.761Z,81.90
2018-12-23T10:30:48.879Z,60.17
2018-12-23T10:33:30.091Z,74.63
2018-12-23T10:36:11.042Z,72.73
2018-12-23T10:38:51.403Z,70.27
2018-12-23T10:41:32.452Z,87.40
2018-12-23T10:44:13.592Z,85.40
2018-12-23T10:46:54.476Z,87.63
2018-12-23T10:49:35.355Z,72.97
2018-12-23T10:52:16.351Z,72.90
2018-12-23T10:54:57.409Z,60.87
2018-12-23T10:57:37.984Z,81.40
2018-12-23T11:00:19.132Z,94.67
2018-12-23T11:03:00.247Z,73.63
2018-12-23T11:05:41.347Z,74.67
2018-12-23T11:08:26.841Z,68.27
2018-12-23T11:11:04.394Z,67.43
2018-12-23T11:13:45.720Z,66.13
2018-12-23T11:16:26.848Z,60.40
2018-12-23T11:19:05.692Z,57.47
2018-12-23T11:21:46.254Z,68.33
2018-12-23T11:24:26.665Z,60.60
2018-12-23T11:27:07.052Z,74.50
2018-12-23T11:29:47.472Z,57.90
2018-12-23T11:32:28.117Z,55.40
2018-12-23T11:35:08.491Z,58.97
2018-12-23T11:37:48.860Z,53.63
2018-12-23T11:40:29.495Z,60.80
2018-12-23T11:43:10.076Z,47.00
2018-12-23T11:45:51.286Z,71.40
2018-12-23T11:48:32.212Z,61.90
2018-12-23T11:51:12.863Z,65.77
2018-12-23T11:53:53.768Z,62.40
2018-12-23T11:56:34.252Z,40.30
2018-12-23T11:59:15.289Z,47.93
2018-12-23T12:01:56.299Z,32.27
2018-12-23T12:04:36.859Z,45.83
2018-12-23T12:07:17.196Z,30.73
2018-12-23T12:09:56.275Z,55.87
2018-12-23T12:12:44.228Z,31.23
2018-12-23T12:15:25.292Z,32.10
2018-12-23T12:18:05.696Z,39.87
2018-12-23T12:20:46.983Z,31.13
2018-12-23T12:23:27.571Z,37.03
2018-12-23T12:26:08.660Z,47.40
2018-12-23T12:28:49.076Z,38.57
2018-12-23T12:31:29.438Z,51.60
2018-12-23T12:34:09.993Z,35.60
2018-12-23T12:36:50.543Z,29.10
2018-12-23T12:39:29.411Z,33.20
2018-12-23T12:42:17.296Z,27.77
2018-12-23T12:44:57.604Z,27.50
2018-12-23T12:47:38.909Z,26.77
2018-12-23T12:50:20.122Z,26.03
2018-12-23T12:53:00.503Z,25.60
2018-12-23T12:55:40.883Z,22.13
2018-12-23T12:58:21.900Z,20.07
2018-12-23T13:01:02.339Z,18.83
2018-12-23T13:03:41.175Z,20.00
2018-12-23T13:06:21.919Z,15.33
2018-12-23T13:09:00.919Z,26.23
2018-12-23T13:11:41.991Z,21.20
2018-12-23T13:14:23.092Z,14.80
2018-12-23T13:17:04.116Z,19.37
2018-12-23T13:19:44.897Z,26.63
2018-12-23T13:22:26.087Z,24.97
2018-12-23T13:25:06.687Z,28.57
2018-12-23T13:27:47.099Z,29.03
2018-12-23T13:30:27.504Z,22.47
2018-12-23T13:33:08.483Z,25.03
2018-12-23T13:35:49.610Z,29.47
2018-12-23T13:38:30.844Z,24.30
2018-12-23T13:41:11.815Z,22.20
2018-12-23T13:43:53.268Z,26.43
2018-12-23T13:46:34.113Z,22.90
2018-12-23T13:49:15.327Z,24.20
2018-12-23T13:51:56.588Z,31.60
2018-12-23T13:54:37.679Z,30.43
2018-12-23T13:57:18.685Z,20.03
2018-12-23T13:59:59.200Z,25.30
2018-12-23T14:02:40.226Z,27.70
2018-12-23T14:05:20.720Z,24.53
2018-12-23T14:08:03.823Z,20.37
2018-12-23T14:10:45.054Z,29.20
2018-12-23T14:13:26.314Z,22.00
2018-12-23T14:16:08.828Z,31.13
2018-12-23T14:18:49.512Z,25.67
2018-12-23T14:21:30.864Z,29.50
2018-12-23T14:24:12.096Z,42.90
2018-12-23T14:26:53.121Z,34.93
2018-12-23T14:29:33.824Z,39.77
2018-12-23T14:32:14.267Z,34.20
2018-12-23T14:34:53.159Z,51.57
2018-12-23T14:37:33.923Z,34.80
2018-12-23T14:40:14.761Z,51.37
2018-12-23T14:42:55.460Z,39.47
2018-12-23T14:45:36.737Z,27.03
2018-12-23T14:48:17.814Z,32.57
2018-12-23T14:50:59.396Z,35.30
2018-12-23T14:53:39.641Z,32.83
2018-12-23T14:59:15.301Z,38.63
2018-12-23T15:02:03.346Z,28.40
2018-12-23T15:04:51.311Z,28.77
2018-12-23T15:07:32.217Z,33.63
2018-12-23T15:10:13.874Z,23.80
2018-12-23T15:12:54.876Z,57.17
2018-12-23T15:15:36.023Z,51.30
2018-12-23T15:18:16.646Z,37.93
2018-12-23T15:20:55.956Z,47.77
2018-12-23T15:23:36.731Z,38.43
2018-12-23T15:26:18.125Z,35.77
2018-12-23T15:28:59.242Z,55.00
2018-12-23T15:31:39.959Z,53.77
2018-12-23T15:34:20.898Z,40.03
2018-12-23T15:37:02.076Z,52.90
2018-12-23T15:39:43.219Z,32.30
2018-12-23T15:42:24.155Z,36.67
2018-12-23T15:45:04.717Z,25.47
2018-12-23T15:47:45.114Z,32.23
2018-12-23T15:50:26.041Z,45.93
2018-12-23T15:53:07.269Z,49.80
2018-12-23T15:55:47.958Z,59.03
2018-12-23T15:58:28.768Z,68.67
2018-12-23T16:01:10.170Z,31.23
2018-12-23T16:03:50.556Z,29.43
2018-12-23T16:06:31.663Z,45.90
2018-12-23T16:09:12.866Z,36.47
2018-12-23T16:11:41.716Z,40.10
2018-12-23T16:14:10.708Z,31.67
2018-12-23T16:16:58.777Z,33.23
2018-12-23T16:19:46.934Z,31.07
2018-12-23T16:22:27.475Z,31.27
2018-12-23T16:25:09.764Z,58.97
2018-12-23T16:27:50.927Z,36.13
2018-12-23T16:30:34.564Z,31.93
2018-12-23T16:33:15.974Z,34.93
2018-12-23T16:35:56.520Z,23.20
2018-12-23T16:38:37.864Z,38.27
2018-12-23T16:41:18.807Z,21.90
2018-12-23T16:43:59.215Z,30.97
2018-12-23T16:46:40.185Z,22.37
2018-12-23T16:49:21.432Z,18.20
2018-12-23T16:52:02.841Z,27.03
2018-12-23T16:54:31.539Z,16.43
2018-12-23T16:57:12.254Z,26.37
2018-12-23T16:59:53.193Z,28.97
2018-12-23T17:02:34.735Z,24.70
2018-12-23T17:05:15.388Z,22.23
2018-12-23T17:07:55.713Z,22.13
2018-12-23T17:10:36.325Z,17.97
2018-12-23T17:13:16.733Z,16.33
2018-12-23T17:15:57.986Z,17.77
2018-12-23T17:18:38.339Z,21.30
2018-12-23T17:21:19.511Z,24.60
2018-12-23T17:24:00.688Z,19.17
2018-12-23T17:26:41.853Z,26.10
2018-12-23T17:29:22.471Z,23.43
2018-12-23T17:32:03.662Z,20.93
2018-12-23T17:34:44.297Z,21.77
2018-12-23T17:37:25.578Z,24.47
2018-12-23T17:40:06.279Z,23.43
2018-12-23T17:42:47.327Z,19.57
2018-12-23T17:45:27.783Z,27.73
2018-12-23T17:48:09.029Z,33.80
2018-12-23T17:50:50.330Z,30.87
2018-12-23T17:53:19.299Z,25.13
2018-12-23T17:56:07.576Z,21.50
2018-12-23T18:02:00.471Z,13.57
2018-12-23T18:04:41.596Z,16.80
2018-12-23T18:07:21.903Z,18.60
2018-12-23T18:10:02.488Z,15.27
2018-12-23T18:12:43.996Z,13.13
2018-12-23T18:15:27.013Z,10.67
2018-12-23T18:18:07.388Z,11.37
2018-12-23T18:20:48.447Z,10.50
2018-12-23T18:23:28.938Z,10.47
2018-12-23T18:26:10.074Z,11.60
2018-12-23T18:28:50.563Z,13.10
2018-12-23T18:31:31.785Z,13.50
2018-12-23T18:34:12.882Z,12.33
2018-12-23T18:36:54.159Z,16.47
2018-12-23T18:39:34.907Z,13.10
2018-12-23T18:42:15.355Z,22.70
2018-12-23T18:44:56.134Z,13.57
2018-12-23T18:47:37.034Z,13.90
2018-12-23T18:50:18.265Z,16.47
2018-12-23T18:52:59.699Z,10.40
2018-12-23T18:55:40.642Z,14.33
2018-12-23T18:58:21.372Z,20.03
2018-12-23T19:01:02.718Z,7.60
2018-12-23T19:03:43.643Z,4.93
2018-12-23T19:06:24.307Z,7.40
2018-12-23T19:09:04.705Z,5.60
2018-12-23T19:11:45.209Z,6.13
2018-12-23T19:14:25.780Z,7.70
2018-12-23T19:17:06.725Z,7.40
2018-12-23T19:19:47.166Z,6.73
2018-12-23T19:22:54.380Z,7.67
2018-12-23T19:25:35.399Z,9.27
2018-12-23T19:28:16.628Z,6.57
2018-12-23T19:30:57.009Z,5.20
2018-12-23T19:33:38.028Z,9.47
2018-12-23T19:36:38.622Z,8.60
2018-12-23T19:39:45.830Z,10.70
2018-12-23T19:42:26.516Z,8.27
2018-12-23T19:45:07.560Z,10.63
2018-12-23T19:47:50.672Z,8.10
2018-12-23T19:53:53.794Z,7.13
2018-12-23T19:56:34.164Z,5.63
2018-12-23T19:59:14.569Z,8.50
2018-12-23T20:01:55.065Z,14.63
2018-12-23T20:04:35.602Z,10.63
2018-12-23T20:07:16.106Z,7.33
2018-12-23T20:09:57.112Z,8.80
2018-12-23T20:12:38.328Z,11.60
2018-12-23T20:15:18.892Z,10.27
2018-12-23T20:18:00.039Z,13.63
2018-12-23T20:20:41.077Z,7.30
2018-12-23T20:23:21.479Z,8.27
2018-12-23T20:26:01.847Z,15.70
2018-12-23T20:28:42.792Z,10.37
2018-12-23T20:31:23.181Z,15.27
2018-12-23T20:34:03.556Z,16.60
2018-12-23T20:36:43.976Z,16.97
2018-12-23T20:39:25.121Z,16.60
2018-12-23T20:42:05.712Z,10.67
2018-12-23T20:44:46.684Z,13.70
2018-12-23T20:47:27.959Z,13.10
2018-12-23T20:50:09.198Z,18.53
2018-12-23T20:52:50.254Z,13.03
2018-12-23T20:55:30.843Z,13.57
2018-12-23T20:58:11.255Z,13.57
2018-12-23T21:00:55.029Z,14.17
2018-12-23T21:03:36.187Z,13.43
2018-12-23T21:06:17.128Z,10.53
2018-12-23T21:09:00.564Z,8.53
2018-12-23T21:14:55.384Z,17.43
2018-12-23T21:17:36.446Z,14.97
2018-12-23T21:20:17.682Z,14.80
2018-12-23T21:22:59.085Z,14.20
2018-12-23T21:25:40.448Z,15.67
2018-12-23T21:28:21.356Z,14.50
2018-12-23T21:34:11.912Z,23.80
2018-12-23T21:37:11.358Z,13.67
2018-12-23T21:40:18.979Z,11.90
2018-12-23T21:43:00.341Z,13.27
2018-12-23T21:45:41.716Z,12.03
2018-12-23T21:48:22.816Z,22.57
2018-12-23T21:51:03.212Z,12.17
2018-12-23T21:53:44.384Z,9.40
2018-12-23T21:56:24.896Z,9.47
2018-12-23T21:59:06.071Z,11.40
2018-12-23T22:01:47.267Z,9.77
2018-12-23T22:04:28.489Z,14.93
2018-12-23T22:07:08.880Z,12.27
2018-12-23T22:09:49.853Z,8.23
2018-12-23T22:12:30.939Z,10.63
2018-12-23T22:15:11.888Z,11.93
2018-12-23T22:17:52.966Z,9.60
2018-12-23T22:20:33.282Z,10.07
2018-12-23T22:23:14.175Z,12.43
2018-12-23T22:25:54.664Z,18.80
2018-12-23T22:28:35.132Z,13.03
2018-12-23T22:31:14.041Z,13.70
2018-12-23T22:34:01.933Z,11.47
2018-12-23T22:36:43.083Z,12.87
2018-12-23T22:39:24.280Z,13.07
2018-12-23T22:42:05.489Z,9.87
2018-12-23T22:44:46.668Z,9.10
2018-12-23T22:47:27.708Z,12.00
2018-12-23T22:50:08.007Z,7.30
2018-12-23T22:52:48.320Z,12.43
2018-12-23T22:55:29.512Z,6.87
2018-12-23T22:58:10.557Z,5.03
2018-12-23T23:00:51.467Z,14.33
2018-12-23T23:03:31.947Z,7.10
2018-12-23T23:06:12.884Z,11.37
2018-12-23T23:08:53.276Z,11.23
2018-12-23T23:11:34.293Z,8.43
2018-12-23T23:14:13.168Z,10.07
2018-12-23T23:17:01.080Z,7.77
2018-12-23T23:19:41.511Z,15.30
2018-12-23T23:22:20.378Z,7.27
2018-12-23T23:25:08.270Z,6.83
2018-12-23T23:27:48.760Z,9.40
2018-12-23T23:30:29.855Z,9.40
2018-12-23T23:33:10.932Z,10.13
2018-12-23T23:35:51.672Z,11.10
2018-12-23T23:38:32.989Z,14.50
2018-12-23T23:41:01.627Z,10.33
2018-12-23T23:43:49.516Z,9.53
2018-12-23T23:46:37.503Z,7.73
2018-12-23T23:49:18.099Z,7.90
2018-12-23T23:51:59.085Z,7.77
2018-12-23T23:54:39.812Z,8.50
2018-12-23T23:57:20.989Z,5.20
